Time;durP1;ratioP1;P1;durP2;ratioP2;P2;SDS_P1;SDS_P2;PMS_P1;PMS_P2;Temp;Humidity;BMP_temperature;BMP_pressure;BME280_temperature;BME280_humidity;BME280_pressure;Samples;Min_cycle;Max_cycle;Signal;HPM_P1;HPM_P2
2022/12/18 00:03:55;;;;;;;67.47;26.03;;;-3.60;99.90;;;;;;10325171;28;20112;-79
2022/12/18 00:08:57;;;;;;;73.67;26.03;;;-3.50;99.90;;;;;;10327432;28;20109;-79
2022/12/18 00:13:59;;;;;;;63.27;22.57;;;-3.50;99.90;;;;;;10315674;28;20038;-79
2022/12/18 00:19:00;;;;;;;63.33;23.13;;;-3.50;99.90;;;;;;10316960;28;20035;-79
2022/12/18 00:24:01;;;;;;;59.87;22.10;;;-3.50;99.90;;;;;;10314778;28;20665;-78
2022/12/18 00:29:05;;;;;;;71.07;24.53;;;-3.40;99.90;;;;;;10311642;28;20038;-78
2022/12/18 00:34:06;;;;;;;71.27;27.97;;;-3.40;99.90;;;;;;10320361;28;20042;-80
2022/12/18 00:39:07;;;;;;;77.90;26.73;;;-3.50;99.90;;;;;;10321404;28;20051;-79
2022/12/18 00:44:11;;;;;;;66.37;24.80;;;-3.40;99.90;;;;;;10322059;28;20042;-79
2022/12/18 00:49:16;;;;;;;67.37;26.83;;;-3.40;99.90;;;;;;10322842;28;20544;-79
2022/12/18 00:54:17;;;;;;;79.07;27.70;;;-3.40;99.90;;;;;;10319863;28;20089;-82
2022/12/18 00:59:18;;;;;;;81.83;30.87;;;-3.40;99.90;;;;;;10315084;28;20546;-81
2022/12/18 01:04:18;;;;;;;96.50;35.33;;;-3.40;99.90;;;;;;10318346;28;20070;-79
2022/12/18 01:09:19;;;;;;;90.30;32.10;;;-3.40;99.90;;;;;;10322772;28;20057;-82
2022/12/18 01:14:19;;;;;;;81.37;32.50;;;-3.40;99.90;;;;;;10308628;28;20532;-82
2022/12/18 01:19:20;;;;;;;94.10;32.73;;;-3.40;99.90;;;;;;10314132;28;20053;-80
2022/12/18 01:24:21;;;;;;;84.43;31.63;;;-3.40;99.90;;;;;;10314920;28;20042;-79
2022/12/18 01:29:21;;;;;;;88.47;30.03;;;-3.50;99.90;;;;;;10323204;28;20022;-83
2022/12/18 01:34:22;;;;;;;72.90;29.47;;;-3.40;99.90;;;;;;10317443;28;20038;-81
2022/12/18 01:39:23;;;;;;;83.17;30.37;;;-3.40;99.90;;;;;;10319537;28;20105;-79
2022/12/18 01:44:45;;;;;;;80.77;30.30;;;-3.40;99.90;;;;;;10320381;28;20569;-79
2022/12/18 01:49:46;;;;;;;73.03;25.97;;;-3.40;99.90;;;;;;10312601;28;20089;-82
2022/12/18 01:54:48;;;;;;;79.00;27.60;;;-3.40;99.90;;;;;;10311826;28;20118;-79
2022/12/18 01:59:52;;;;;;;79.97;26.33;;;-3.40;99.90;;;;;;10320369;28;20027;-80
2022/12/18 02:04:53;;;;;;;93.77;33.00;;;-3.40;99.90;;;;;;10313936;28;20086;-81
2022/12/18 02:10:02;;;;;;;77.60;28.37;;;-3.40;99.90;;;;;;10316418;28;20702;-82
2022/12/18 02:15:05;;;;;;;79.23;26.77;;;-3.50;99.90;;;;;;10312433;28;20022;-79
2022/12/18 02:20:19;;;;;;;79.73;28.40;;;-3.50;99.90;;;;;;10322687;28;20101;-82
2022/12/18 02:25:47;;;;;;;83.63;30.97;;;-3.40;99.90;;;;;;10305652;28;20030;-79
2022/12/18 02:30:50;;;;;;;91.27;36.10;;;-3.50;99.90;;;;;;10317718;28;20062;-81
2022/12/18 02:35:54;;;;;;;95.27;34.13;;;-3.50;99.90;;;;;;10319661;28;20093;-80
2022/12/18 02:40:56;;;;;;;98.77;37.70;;;-3.50;99.90;;;;;;10351968;28;20050;-80
2022/12/18 02:45:59;;;;;;;94.90;33.10;;;-3.40;99.90;;;;;;10320251;28;20045;-82
2022/12/18 02:51:09;;;;;;;84.50;28.37;;;-3.50;99.90;;;;;;10321595;28;20026;-81
2022/12/18 02:56:20;;;;;;;108.27;37.03;;;-3.50;99.90;;;;;;10317243;28;20549;-81
2022/12/18 03:01:39;;;;;;;87.23;33.47;;;-3.50;99.90;;;;;;10321347;28;20050;-81
2022/12/18 03:06:44;;;;;;;94.73;33.47;;;-3.50;99.90;;;;;;10317614;28;20034;-81
2022/12/18 03:17:17;;;;;;;81.10;32.20;;;-3.50;99.90;;;;;;10311286;28;20141;-82
2022/12/18 03:22:19;;;;;;;97.00;33.83;;;-3.50;99.90;;;;;;10320621;28;20038;-82
2022/12/18 03:27:23;;;;;;;88.47;32.57;;;-3.60;99.90;;;;;;10320557;28;20038;-80
2022/12/18 03:32:31;;;;;;;79.97;28.50;;;-3.60;99.90;;;;;;10307459;28;20034;-80
2022/12/18 03:37:32;;;;;;;84.90;32.27;;;-3.60;99.90;;;;;;10309208;28;20589;-82
2022/12/18 03:42:51;;;;;;;75.73;26.13;;;-3.50;99.90;;;;;;10319692;28;20133;-80
2022/12/18 03:48:25;;;;;;;77.57;27.53;;;-3.50;99.90;;;;;;10315311;28;20038;-80
2022/12/18 03:53:39;;;;;;;79.27;29.97;;;-3.60;99.90;;;;;;10315498;28;20441;-81
2022/12/18 03:58:41;;;;;;;88.67;29.13;;;-3.60;99.90;;;;;;10296459;28;20041;-80
2022/12/18 04:03:44;;;;;;;85.90;28.43;;;-3.60;99.90;;;;;;10320040;28;20026;-80
2022/12/18 04:08:46;;;;;;;75.23;28.00;;;-3.60;99.90;;;;;;10329507;28;20566;-83
2022/12/18 04:13:47;;;;;;;82.70;26.57;;;-3.60;99.90;;;;;;10308423;28;20431;-85
2022/12/18 04:18:47;;;;;;;73.93;27.23;;;-3.60;99.90;;;;;;10308095;28;20019;-82
2022/12/18 04:23:48;;;;;;;74.80;26.93;;;-3.60;99.90;;;;;;10305046;28;20084;-82
2022/12/18 04:28:48;;;;;;;93.80;32.87;;;-3.60;99.90;;;;;;10311704;28;20023;-80
2022/12/18 04:33:49;;;;;;;72.87;25.57;;;-3.60;99.90;;;;;;10350176;28;20031;-80
2022/12/18 04:38:49;;;;;;;80.87;26.93;;;-3.60;99.90;;;;;;10315077;28;20409;-83
2022/12/18 04:43:50;;;;;;;70.23;24.30;;;-3.60;99.90;;;;;;10301281;28;20049;-80
2022/12/18 04:48:50;;;;;;;82.83;28.13;;;-3.60;99.90;;;;;;10320817;28;20541;-84
2022/12/18 04:53:51;;;;;;;72.93;27.87;;;-3.60;99.90;;;;;;10326727;28;20027;-80
2022/12/18 04:58:52;;;;;;;81.63;30.10;;;-3.60;99.90;;;;;;10319311;28;20033;-80
2022/12/18 05:03:52;;;;;;;74.20;22.93;;;-3.70;99.90;;;;;;10325953;28;20049;-80
2022/12/18 05:08:53;;;;;;;71.73;26.03;;;-3.60;99.90;;;;;;10316370;28;20053;-80
2022/12/18 05:13:56;;;;;;;65.67;23.20;;;-3.70;99.90;;;;;;10324168;28;20115;-82
2022/12/18 05:18:57;;;;;;;72.13;22.77;;;-3.70;99.90;;;;;;10316685;28;20053;-84
2022/12/18 05:23:57;;;;;;;66.23;24.67;;;-3.70;99.90;;;;;;10321509;28;20054;-80
2022/12/18 05:28:58;;;;;;;73.33;23.33;;;-3.70;99.90;;;;;;10311773;28;20033;-80
2022/12/18 05:33:58;;;;;;;71.20;23.97;;;-3.70;99.90;;;;;;10322355;28;20463;-81
2022/12/18 05:39:00;;;;;;;73.23;26.17;;;-3.70;99.90;;;;;;10321720;28;20050;-80
2022/12/18 05:44:00;;;;;;;77.20;28.37;;;-3.70;99.90;;;;;;10316573;28;20034;-80
2022/12/18 05:49:01;;;;;;;93.63;33.90;;;-3.70;99.90;;;;;;10308191;28;20030;-81
2022/12/18 05:54:02;;;;;;;96.60;35.27;;;-3.70;99.90;;;;;;10319880;28;20018;-80
2022/12/18 05:59:02;;;;;;;83.90;30.80;;;-3.70;99.90;;;;;;10320651;28;20022;-81
2022/12/18 06:04:03;;;;;;;87.73;28.23;;;-3.70;99.90;;;;;;10330603;28;20049;-81
2022/12/18 06:09:09;;;;;;;79.77;28.87;;;-3.70;99.90;;;;;;10323782;28;20030;-81
2022/12/18 06:14:09;;;;;;;87.07;34.70;;;-3.80;99.90;;;;;;10307724;28;20532;-80
2022/12/18 06:19:14;;;;;;;94.97;33.73;;;-3.80;99.90;;;;;;10320550;28;20035;-82
2022/12/18 06:24:15;;;;;;;84.17;32.13;;;-3.80;99.90;;;;;;10316572;28;20085;-81
2022/12/18 06:29:15;;;;;;;78.13;27.33;;;-3.90;99.90;;;;;;10320679;28;20384;-81
2022/12/18 06:34:16;;;;;;;82.30;28.97;;;-4.10;99.90;;;;;;10315237;28;20117;-81
2022/12/18 06:39:16;;;;;;;83.00;28.67;;;-4.20;99.90;;;;;;10317162;28;20073;-83
2022/12/18 06:44:17;;;;;;;86.27;31.37;;;-4.30;99.90;;;;;;10307516;28;20047;-81
2022/12/18 06:49:18;;;;;;;77.97;28.00;;;-4.50;99.90;;;;;;10320167;28;20026;-84
2022/12/18 06:54:18;;;;;;;105.47;35.53;;;-4.70;99.90;;;;;;10321216;28;20395;-81
2022/12/18 06:59:19;;;;;;;107.07;36.97;;;-4.90;99.90;;;;;;10321181;28;20053;-83
2022/12/18 07:04:19;;;;;;;119.10;43.60;;;-5.00;99.90;;;;;;10320627;28;20117;-82
2022/12/18 07:09:20;;;;;;;102.93;35.50;;;-5.10;99.90;;;;;;10313099;28;20030;-81
2022/12/18 07:14:21;;;;;;;114.10;43.43;;;-5.30;99.90;;;;;;10321191;28;20400;-81
2022/12/18 07:19:24;;;;;;;160.47;63.60;;;-5.40;99.90;;;;;;10320504;28;20054;-81
2022/12/18 07:24:25;;;;;;;169.87;72.40;;;-5.60;99.90;;;;;;10320860;28;20231;-81
2022/12/18 07:29:25;;;;;;;215.93;84.50;;;-5.70;99.90;;;;;;10319838;28;20041;-81
2022/12/18 07:34:26;;;;;;;195.57;82.97;;;-5.80;99.90;;;;;;10321090;28;20089;-83
2022/12/18 07:39:26;;;;;;;155.90;62.40;;;-5.90;99.90;;;;;;10319720;28;20554;-83
2022/12/18 07:44:27;;;;;;;139.00;55.50;;;-5.90;99.90;;;;;;10319933;28;20398;-82
2022/12/18 07:49:28;;;;;;;147.03;53.47;;;-6.00;99.90;;;;;;10320106;28;20441;-83
2022/12/18 07:54:29;;;;;;;146.23;52.23;;;-6.00;99.90;;;;;;10319593;28;20471;-83
2022/12/18 07:59:29;;;;;;;132.03;50.53;;;-5.80;99.90;;;;;;10319324;28;20033;-81
2022/12/18 08:04:30;;;;;;;138.47;55.80;;;-5.60;99.90;;;;;;10319289;28;20052;-81
2022/12/18 08:09:30;;;;;;;175.33;73.57;;;-5.40;99.90;;;;;;10319594;28;20026;-83
2022/12/18 08:14:31;;;;;;;185.53;75.67;;;-5.20;99.90;;;;;;10351202;28;20038;-82
2022/12/18 08:19:32;;;;;;;228.30;97.53;;;-5.10;99.90;;;;;;10318948;28;20093;-82
2022/12/18 08:24:33;;;;;;;260.27;104.37;;;-4.90;99.90;;;;;;10325772;28;20038;-82
2022/12/18 08:29:33;;;;;;;224.07;88.03;;;-4.60;99.90;;;;;;10325161;28;20038;-80
2022/12/18 08:34:34;;;;;;;180.40;74.50;;;-4.40;99.90;;;;;;10326708;28;20506;-82
2022/12/18 08:39:35;;;;;;;123.50;45.60;;;-4.20;99.90;;;;;;10327116;28;20513;-81
2022/12/18 08:44:38;;;;;;;98.27;36.47;;;-4.30;99.90;;;;;;10326419;28;20070;-82
2022/12/18 08:49:38;;;;;;;103.97;39.03;;;-4.20;99.90;;;;;;10326752;28;20033;-81
2022/12/18 08:54:39;;;;;;;100.20;38.53;;;-3.80;99.90;;;;;;10324348;28;20096;-81
2022/12/18 08:59:39;;;;;;;90.57;33.90;;;-3.50;99.90;;;;;;10357584;28;20030;-81
2022/12/18 09:04:40;;;;;;;108.67;42.47;;;-3.40;99.90;;;;;;10325415;28;20042;-81
2022/12/18 09:09:41;;;;;;;158.87;65.90;;;-3.40;99.90;;;;;;10325089;28;20076;-81
2022/12/18 09:14:41;;;;;;;208.37;88.17;;;-3.20;99.90;;;;;;10323947;28;20026;-81
2022/12/18 09:19:42;;;;;;;207.07;86.83;;;-3.00;99.90;;;;;;10324562;28;20599;-82
2022/12/18 09:24:42;;;;;;;194.17;93.40;;;-2.90;99.90;;;;;;10324644;28;20031;-82
2022/12/18 09:29:43;;;;;;;261.63;112.37;;;-2.80;99.90;;;;;;10325252;28;20161;-83
2022/12/18 09:34:43;;;;;;;249.20;115.43;;;-2.70;99.90;;;;;;10323331;28;20030;-80
2022/12/18 09:39:44;;;;;;;217.33;95.07;;;-2.70;99.90;;;;;;10324040;28;20529;-83
2022/12/18 09:44:48;;;;;;;225.37;102.10;;;-2.60;99.90;;;;;;10323382;28;20043;-80
2022/12/18 09:50:02;;;;;;;337.10;149.17;;;-2.60;99.90;;;;;;10323726;28;20019;-83
2022/12/18 09:55:33;;;;;;;185.73;76.90;;;-2.40;99.90;;;;;;10323670;28;20041;-80
2022/12/18 10:00:34;;;;;;;201.67;76.97;;;-2.30;99.90;;;;;;10322593;28;20734;-81
2022/12/18 10:05:43;;;;;;;268.83;93.83;;;-2.20;99.90;;;;;;10323011;28;20031;-81
2022/12/18 10:10:52;;;;;;;200.13;77.37;;;-2.10;99.90;;;;;;10321738;28;20052;-82
2022/12/18 10:16:17;;;;;;;151.37;62.60;;;-2.10;99.90;;;;;;10322317;28;20022;-83
2022/12/18 10:21:23;;;;;;;168.77;67.47;;;-2.20;99.90;;;;;;10320907;28;20617;-82
2022/12/18 10:26:24;;;;;;;146.80;60.83;;;-2.10;99.90;;;;;;10320463;28;20035;-81
2022/12/18 10:31:25;;;;;;;125.07;50.20;;;-1.90;99.90;;;;;;10322277;28;20030;-81
2022/12/18 10:36:26;;;;;;;122.33;52.73;;;-1.60;99.90;;;;;;10322758;28;20260;-82
2022/12/18 10:41:27;;;;;;;153.17;58.43;;;-1.40;99.90;;;;;;10321299;28;20133;-81
2022/12/18 10:46:27;;;;;;;120.63;50.10;;;-1.10;99.90;;;;;;10320787;28;20101;-81
2022/12/18 10:51:33;;;;;;;103.63;41.37;;;-1.10;99.90;;;;;;10352288;28;20018;-82
2022/12/18 10:56:35;;;;;;;103.28;38.55;;;-1.30;99.90;;;;;;10321028;28;20463;-83
2022/12/18 11:01:48;;;;;;;114.40;46.83;;;-1.60;99.90;;;;;;10352426;28;20588;-81
2022/12/18 11:07:00;;;;;;;115.83;47.33;;;-1.70;99.90;;;;;;10319182;28;20712;-82
2022/12/18 11:12:19;;;;;;;105.63;43.73;;;-1.80;99.90;;;;;;10352274;28;20030;-80
2022/12/18 11:17:35;;;;;;;96.60;39.20;;;-1.70;99.90;;;;;;10319591;28;20108;-81
2022/12/18 11:22:38;;;;;;;121.10;47.25;;;-1.60;99.90;;;;;;10319815;28;20510;-82
2022/12/18 11:27:39;;;;;;;92.33;35.17;;;-1.50;99.90;;;;;;10320580;28;20069;-81
2022/12/18 11:33:21;;;;;;;107.90;46.00;;;-1.60;99.90;;;;;;10320278;28;20038;-82
2022/12/18 11:38:32;;;;;;;99.87;39.20;;;-1.60;99.90;;;;;;10184752;29;20036;-81
2022/12/18 11:43:40;;;;;;;89.17;37.23;;;-1.80;99.90;;;;;;10282294;28;20042;-81
2022/12/18 11:48:58;;;;;;;114.30;49.80;;;-1.80;99.90;;;;;;10319677;28;20448;-81
2022/12/18 11:54:01;;;;;;;112.60;51.93;;;-1.80;99.90;;;;;;10318964;28;20030;-82
2022/12/18 11:59:14;;;;;;;109.73;46.47;;;-1.80;99.90;;;;;;10329576;28;20034;-81
2022/12/18 12:04:47;;;;;;;100.60;45.10;;;-1.70;99.90;;;;;;10330720;28;20220;-82
2022/12/18 12:10:06;;;;;;;102.10;45.20;;;-1.60;99.90;;;;;;10333374;28;20125;-81
2022/12/18 12:15:25;;;;;;;143.13;59.87;;;-1.70;99.90;;;;;;10330603;28;20034;-81
2022/12/18 12:20:59;;;;;;;135.33;65.83;;;-1.90;99.90;;;;;;10332232;28;20052;-81
2022/12/18 12:26:00;;;;;;;102.43;48.53;;;-2.00;99.90;;;;;;10332416;28;20093;-83
2022/12/18 12:31:26;;;;;;;107.73;40.57;;;-1.90;99.90;;;;;;10330577;28;20034;-82
2022/12/18 12:36:52;;;;;;;100.40;38.40;;;-1.90;99.90;;;;;;10325308;28;20121;-82
2022/12/18 12:47:37;;;;;;;90.63;35.90;;;-2.00;99.90;;;;;;10332036;28;20070;-83
2022/12/18 12:52:42;;;;;;;95.00;36.47;;;-2.00;99.90;;;;;;10358256;28;20418;-82
2022/12/18 12:57:56;;;;;;;238.52;82.03;;;-2.10;99.90;;;;;;10328003;28;20046;-83
2022/12/18 13:03:01;;;;;;;107.13;43.47;;;-2.20;99.90;;;;;;10333947;28;20042;-84
2022/12/18 13:08:07;;;;;;;99.35;40.08;;;-2.20;99.90;;;;;;10331608;28;20084;-84
2022/12/18 13:13:14;;;;;;;99.72;40.63;;;-2.30;99.90;;;;;;10316645;28;20421;-85
2022/12/18 13:18:23;;;;;;;104.43;41.67;;;-2.30;99.90;;;;;;10318324;28;20031;-82
2022/12/18 13:23:23;;;;;;;131.80;48.27;;;-2.40;99.90;;;;;;10320121;28;20033;-82
2022/12/18 13:28:36;;;;;;;121.83;45.47;;;-2.50;99.90;;;;;;10322677;28;20586;-83
2022/12/18 13:33:45;;;;;;;97.17;36.63;;;-2.60;99.90;;;;;;10323770;28;20026;-84
2022/12/18 13:38:45;;;;;;;83.77;34.27;;;-2.70;99.90;;;;;;10323286;28;20077;-81
2022/12/18 13:44:10;;;;;;;86.90;34.67;;;-2.90;99.90;;;;;;10317941;28;20132;-81
2022/12/18 13:49:13;;;;;;;82.83;31.83;;;-3.10;99.90;;;;;;10316225;28;20022;-81
2022/12/18 13:54:32;;;;;;;111.30;41.67;;;-3.30;99.90;;;;;;10317077;28;20113;-82
2022/12/18 13:59:33;;;;;;;655.10;290.57;;;-3.40;99.90;;;;;;10323137;28;20031;-82
2022/12/18 14:04:35;;;;;;;98.97;35.43;;;-3.70;99.90;;;;;;10318722;28;20050;-81
2022/12/18 14:09:39;;;;;;;108.73;40.67;;;-3.90;99.90;;;;;;10310181;28;20446;-81
2022/12/18 14:14:43;;;;;;;102.77;39.13;;;-4.10;99.90;;;;;;10304072;28;20034;-80
2022/12/18 14:19:49;;;;;;;107.47;38.03;;;-4.40;99.90;;;;;;10321412;28;20033;-80
2022/12/18 14:25:13;;;;;;;128.77;48.73;;;-4.60;99.90;;;;;;10322683;28;20042;-81
2022/12/18 14:30:31;;;;;;;142.53;51.17;;;-4.70;99.90;;;;;;10321107;28;20037;-82
2022/12/18 14:35:41;;;;;;;145.20;51.00;;;-4.90;99.90;;;;;;10321590;28;20027;-80
2022/12/18 14:40:43;;;;;;;163.70;61.53;;;-5.20;99.90;;;;;;10310656;28;20054;-79
2022/12/18 14:45:46;;;;;;;169.87;66.17;;;-5.20;99.90;;;;;;10317517;28;20034;-80
2022/12/18 14:50:59;;;;;;;180.63;77.67;;;-5.30;99.90;;;;;;10320459;28;20037;-80
2022/12/18 14:56:32;;;;;;;184.10;71.47;;;-5.60;99.90;;;;;;10319121;28;20478;-79
2022/12/18 15:01:46;;;;;;;164.43;63.53;;;-5.90;99.90;;;;;;10302308;28;20034;-80
2022/12/18 15:06:48;;;;;;;175.27;67.53;;;-6.00;99.90;;;;;;10319474;28;20031;-79
2022/12/18 15:11:55;;;;;;;191.70;74.53;;;-6.20;99.90;;;;;;10314774;28;20057;-80
2022/12/18 15:16:58;;;;;;;213.37;79.70;;;-6.40;99.90;;;;;;10318633;28;20034;-83
2022/12/18 15:22:00;;;;;;;165.00;63.10;;;-6.50;99.90;;;;;;10317077;28;20026;-83
2022/12/18 15:27:02;;;;;;;179.83;65.20;;;-6.60;99.90;;;;;;10317383;28;20038;-83
2022/12/18 15:32:19;;;;;;;232.10;84.27;;;-6.80;99.90;;;;;;10318279;28;20041;-83
2022/12/18 15:37:22;;;;;;;182.43;62.30;;;-6.80;99.90;;;;;;10318895;28;20044;-80
2022/12/18 15:47:44;;;;;;;199.43;74.57;;;-7.00;99.90;;;;;;10313342;28;20030;-82
2022/12/18 15:52:49;;;;;;;174.50;68.60;;;-7.10;99.90;;;;;;10319538;28;20372;-83
2022/12/18 15:57:51;;;;;;;181.07;68.13;;;-7.30;99.90;;;;;;10313951;28;20399;-79
2022/12/18 16:02:51;;;;;;;294.03;105.67;;;-7.30;99.90;;;;;;10318826;28;20038;-80
2022/12/18 16:07:53;;;;;;;199.63;73.73;;;-7.20;99.90;;;;;;10315972;28;20033;-79
2022/12/18 16:12:54;;;;;;;175.37;65.57;;;-7.20;99.90;;;;;;10314555;28;20071;-82
2022/12/18 16:17:55;;;;;;;172.50;66.93;;;-7.20;99.90;;;;;;10315998;28;20113;-82
2022/12/18 16:22:56;;;;;;;176.13;65.70;;;-7.30;99.90;;;;;;10302684;28;20063;-80
2022/12/18 16:27:57;;;;;;;169.93;65.67;;;-7.30;99.90;;;;;;10313296;28;20034;-81
2022/12/18 16:32:58;;;;;;;160.73;64.17;;;-7.40;99.90;;;;;;10314445;28;20125;-80
2022/12/18 16:38:00;;;;;;;165.53;67.07;;;-7.60;99.90;;;;;;10313931;28;20027;-79
2022/12/18 16:43:01;;;;;;;154.87;61.10;;;-7.80;99.90;;;;;;10317608;28;20062;-80
2022/12/18 16:48:03;;;;;;;141.37;53.50;;;-7.90;99.90;;;;;;10324118;28;20686;-80
2022/12/18 16:53:06;;;;;;;152.03;55.43;;;-7.90;99.90;;;;;;10320299;28;20038;-81
2022/12/18 16:58:07;;;;;;;163.20;66.43;;;-7.90;99.90;;;;;;10322596;28;20036;-85
2022/12/18 17:03:07;;;;;;;158.97;58.90;;;-7.90;99.90;;;;;;10352715;28;20035;-82
2022/12/18 17:08:09;;;;;;;142.33;54.20;;;-8.00;99.90;;;;;;10322281;28;20066;-81
2022/12/18 17:13:11;;;;;;;171.33;67.67;;;-8.10;99.90;;;;;;10347239;28;20172;-80
2022/12/18 17:18:12;;;;;;;157.10;64.77;;;-8.20;99.90;;;;;;10326302;28;20033;-80
2022/12/18 17:23:13;;;;;;;187.90;72.43;;;-8.00;99.90;;;;;;10321275;28;20070;-80
2022/12/18 17:28:16;;;;;;;299.57;124.33;;;-8.00;99.90;;;;;;10318297;28;20558;-81
2022/12/18 17:33:18;;;;;;;283.83;117.87;;;-8.00;99.90;;;;;;10322582;28;20039;-80
2022/12/18 17:38:20;;;;;;;221.70;85.57;;;-7.90;99.90;;;;;;10320790;28;20030;-80
2022/12/18 17:43:22;;;;;;;231.63;93.80;;;-7.80;99.90;;;;;;10323966;28;20089;-81
2022/12/18 17:48:24;;;;;;;179.13;70.27;;;-7.90;99.90;;;;;;10320501;28;20631;-81
2022/12/18 17:53:25;;;;;;;172.83;67.70;;;-8.10;99.90;;;;;;10321001;28;20023;-80
2022/12/18 17:58:28;;;;;;;178.30;71.17;;;-8.30;99.90;;;;;;10323819;28;20041;-81
2022/12/18 18:03:31;;;;;;;153.67;59.20;;;-8.60;99.90;;;;;;10315920;28;20088;-81
2022/12/18 18:08:34;;;;;;;154.40;60.57;;;-8.70;99.90;;;;;;10320672;28;20526;-84
2022/12/18 18:18:56;;;;;;;172.67;67.73;;;-8.70;99.90;;;;;;10323611;28;20050;-82
2022/12/18 18:24:02;;;;;;;175.93;66.27;;;-8.60;99.90;;;;;;10321502;28;20046;-84
2022/12/18 18:29:05;;;;;;;174.35;67.10;;;-8.70;99.90;;;;;;10322466;28;20042;-79
2022/12/18 18:34:05;;;;;;;162.83;61.70;;;-8.70;99.90;;;;;;10321585;28;20038;-84
2022/12/18 18:39:06;;;;;;;156.07;56.20;;;-8.80;99.90;;;;;;10311120;28;20136;-81
2022/12/18 18:44:08;;;;;;;140.07;53.63;;;-8.90;99.90;;;;;;10306551;28;20054;-81
2022/12/18 18:49:09;;;;;;;147.30;54.63;;;-9.10;99.90;;;;;;10321456;28;20038;-80
2022/12/18 18:54:09;;;;;;;156.57;61.90;;;-9.20;99.90;;;;;;10312842;28;20487;-83
2022/12/18 18:59:10;;;;;;;156.47;58.90;;;-9.30;99.90;;;;;;10319523;28;20068;-81
2022/12/18 19:04:11;;;;;;;148.93;59.30;;;-9.40;99.90;;;;;;10319698;28;20093;-81
2022/12/18 19:09:11;;;;;;;142.63;53.07;;;-9.40;99.90;;;;;;10307071;28;20126;-83
2022/12/18 19:14:13;;;;;;;154.90;55.30;;;-9.40;99.90;;;;;;10311239;28;20056;-82
2022/12/18 19:19:17;;;;;;;168.30;55.60;;;-9.40;99.90;;;;;;10319060;28;20042;-82
2022/12/18 19:24:17;;;;;;;153.50;55.67;;;-9.50;99.90;;;;;;10319472;28;20038;-84
2022/12/18 19:29:18;;;;;;;149.13;53.10;;;-9.60;99.90;;;;;;10312829;28;20057;-86
2022/12/18 19:34:19;;;;;;;129.70;46.50;;;-9.60;99.90;;;;;;10318232;28;20162;-83
2022/12/18 19:39:19;;;;;;;126.00;48.13;;;-9.70;99.90;;;;;;10318192;28;20057;-83
2022/12/18 19:44:20;;;;;;;144.93;49.73;;;-9.90;99.90;;;;;;10341586;28;20049;-84
2022/12/18 19:49:20;;;;;;;133.07;47.20;;;-10.00;99.90;;;;;;10313940;28;20046;-83
2022/12/18 19:54:21;;;;;;;119.37;42.83;;;-9.90;99.90;;;;;;10318147;28;20101;-83
2022/12/18 19:59:22;;;;;;;120.53;45.77;;;-9.80;99.90;;;;;;10319534;28;20034;-81
2022/12/18 20:04:22;;;;;;;139.60;50.10;;;-9.80;99.90;;;;;;10317555;28;20039;-83
2022/12/18 20:09:23;;;;;;;126.97;45.77;;;-9.70;99.90;;;;;;10348779;28;20121;-85
2022/12/18 20:14:23;;;;;;;113.90;40.67;;;-9.50;99.90;;;;;;10319848;28;20030;-84
2022/12/18 20:19:25;;;;;;;120.40;44.27;;;-9.60;99.90;;;;;;10325344;28;20038;-85
2022/12/18 20:24:26;;;;;;;122.37;42.33;;;-9.60;99.90;;;;;;10345352;28;20053;-84
2022/12/18 20:29:27;;;;;;;109.00;38.87;;;-9.80;99.90;;;;;;10321528;28;20034;-82
2022/12/18 20:34:28;;;;;;;112.93;37.53;;;-9.80;99.90;;;;;;10320375;28;20485;-83
2022/12/18 20:39:28;;;;;;;108.50;37.23;;;-9.80;99.90;;;;;;10309829;28;20058;-83
2022/12/18 20:44:32;;;;;;;95.23;35.33;;;-9.90;99.90;;;;;;10325029;28;20035;-85
2022/12/18 20:49:33;;;;;;;106.13;35.17;;;-10.00;99.90;;;;;;10325886;28;20121;-80
2022/12/18 20:54:33;;;;;;;110.53;37.43;;;-9.90;99.90;;;;;;10325947;28;20033;-81
2022/12/18 20:59:34;;;;;;;107.03;34.73;;;-9.90;99.90;;;;;;10325738;28;20037;-83
2022/12/18 21:04:34;;;;;;;103.50;37.70;;;-9.90;99.90;;;;;;10309143;28;20038;-83
2022/12/18 21:09:35;;;;;;;105.10;35.70;;;-9.90;99.90;;;;;;10324517;28;20026;-81
2022/12/18 21:14:36;;;;;;;104.20;36.83;;;-9.90;99.90;;;;;;10314493;28;20050;-81
2022/12/18 21:19:37;;;;;;;96.60;34.03;;;-9.90;99.90;;;;;;10317760;28;20027;-82
2022/12/18 21:24:37;;;;;;;94.47;34.60;;;-9.90;99.90;;;;;;10313802;28;20034;-82
2022/12/18 21:29:38;;;;;;;100.60;34.73;;;-9.90;99.90;;;;;;10314321;28;20478;-82
2022/12/18 21:34:39;;;;;;;102.60;34.60;;;-9.80;99.90;;;;;;10322191;28;20383;-83
2022/12/18 21:39:39;;;;;;;98.73;32.33;;;-9.80;99.90;;;;;;10317608;28;20058;-81
2022/12/18 21:44:40;;;;;;;133.87;44.07;;;-9.70;99.90;;;;;;10320430;28;20053;-81
2022/12/18 21:49:40;;;;;;;102.63;37.60;;;-9.70;99.90;;;;;;10313566;28;20113;-83
2022/12/18 21:54:41;;;;;;;93.60;33.13;;;-9.80;99.90;;;;;;10313791;28;20046;-83
2022/12/18 21:59:44;;;;;;;125.53;43.10;;;-9.90;99.90;;;;;;10323990;28;20494;-82
2022/12/18 22:04:45;;;;;;;130.03;43.03;;;-9.80;99.90;;;;;;10313952;28;20038;-83
2022/12/18 22:09:49;;;;;;;128.47;44.13;;;-9.70;99.90;;;;;;10320106;28;20034;-83
2022/12/18 22:14:49;;;;;;;128.30;45.30;;;-9.70;99.90;;;;;;10315688;28;20761;-82
2022/12/18 22:19:50;;;;;;;146.23;46.80;;;-9.60;99.90;;;;;;10314790;28;20034;-81
2022/12/18 22:24:50;;;;;;;140.33;50.37;;;-9.70;99.90;;;;;;10319154;28;20038;-81
2022/12/18 22:30:03;;;;;;;158.27;54.27;;;-9.70;99.90;;;;;;10322096;28;20030;-81
2022/12/18 22:35:04;;;;;;;190.63;62.03;;;-9.70;99.90;;;;;;10321637;28;20176;-82
2022/12/18 22:40:05;;;;;;;135.97;47.93;;;-9.70;99.90;;;;;;10311663;28;20062;-80
2022/12/18 22:45:06;;;;;;;112.10;39.70;;;-9.70;99.90;;;;;;10318662;28;20281;-82
2022/12/18 22:50:11;;;;;;;120.43;41.47;;;-9.70;99.90;;;;;;10320265;28;20058;-80
2022/12/18 22:55:12;;;;;;;157.30;52.40;;;-9.60;99.90;;;;;;10317644;28;20467;-81
2022/12/18 23:00:13;;;;;;;157.27;52.13;;;-9.60;99.90;;;;;;10319185;28;20038;-81
2022/12/18 23:05:16;;;;;;;133.17;43.80;;;-9.60;99.90;;;;;;10312663;28;20718;-81
2022/12/18 23:10:17;;;;;;;118.87;42.50;;;-9.60;99.90;;;;;;10316107;28;20772;-81
2022/12/18 23:15:17;;;;;;;117.70;41.53;;;-9.60;99.90;;;;;;10347809;28;20041;-80
2022/12/18 23:20:18;;;;;;;104.90;41.73;;;-9.50;99.90;;;;;;10313433;28;20113;-81
2022/12/18 23:25:18;;;;;;;115.43;44.83;;;-9.50;99.90;;;;;;10315836;28;20034;-81
2022/12/18 23:30:19;;;;;;;98.00;36.43;;;-9.50;99.90;;;;;;10306613;28;20436;-81
2022/12/18 23:35:19;;;;;;;110.63;39.80;;;-9.50;99.90;;;;;;10302902;28;20486;-83
2022/12/18 23:40:20;;;;;;;91.03;33.93;;;-9.40;99.90;;;;;;10312217;28;20043;-80
2022/12/18 23:45:20;;;;;;;87.43;31.47;;;-9.40;99.90;;;;;;10313115;28;20038;-82
2022/12/18 23:50:21;;;;;;;92.87;35.20;;;-9.40;99.90;;;;;;10310973;28;20046;-81
2022/12/18 23:55:22;;;;;;;97.13;35.43;;;-9.50;99.90;;;;;;10318507;28;20030;-83
